Sturgeon Bay, WI

1:33 PM CDT on September 02, 2014 (GMT -0500)
Door County Cherryland | Change Station
CLOSE
Current Station
Airport
Location: Sturgeon Bay,
Elevation: 725 ft
Nearby Weather Stations

Elev 725 ft 44.84 °N, 87.42 °W | Updated 18 minutes ago

Scattered Clouds
Scattered Clouds
66 °F
Feels Like 66 °F
N
8
Wind Variable Wind from SW

Today
High -- | Low -- °F
--% Chance of Precip.
Yesterday
High -- | Low -- °F
Precip. -- in
6:12 AM 7:24 PM
First Quarter, 54% visible
Pressure 29.86 in
Visibility 10.0 miles
Clouds Scattered Clouds 9000 ft
Dew Point 61 °F
Humidity 83%
Rainfall 0.00 in
Snow Depth Not available.
UV 6 out of 12
Pollen 8.30 out of 12
Air Quality Not available.
Flu Activity Not available.
METAR KSUE 021815Z AUTO 22007KT 10SM SCT090 19/16 A2986 RMK AO1

More Conditions Fewer Conditions

Pressure 29.86 in
Visibility 10.0 miles
Clouds Scattered Clouds 9000 ft
Dew Point 61 °F
Humidity 83%
Rainfall 0.00 in
Snow Depth Not available.
UV 6 out of 12
Pollen 8.30 out of 12
Air Quality Not available.
Flu Activity Not available.
METAR KSUE 021815Z AUTO 22007KT 10SM SCT090 19/16 A2986 RMK AO1

More Conditions Fewer Conditions

Nowcast | as of 12:03 PM CDT on September 2, 2014

At 1154 am CDT Doppler radar indicated a scattered line of showers with isolated thunderstorms from 39 miles west of Egg Harbor to 25 miles southwest of Green Bay...moving east at 25 mph. A thunderstorm will be near... Kewaunee around 1205 PM northern Door County between 1230 PM and 130 PM... gusty winds and small hail may accompany the thunderstorms.

×

10-Day Weather Forecast

Almanac

Astronomy

Sep. 02, 2014 Rise Set
Actual Time 6:12 AM CDT 7:24 PM CDT
Civil Twilight 5:42 AM CDT 7:54 PM CDT
Nautical Twilight 5:06 AM CDT 8:30 PM CDT
Astronomical Twilight 4:28 AM CDT 9:08 PM CDT
Moon 2:15 PM CDT 11:59 PM CDT
Length of Visible Light 14h 11m
Length of Day
13h 11m
Tomorrow will be 3m 1s shorter.
First Quarter, 54% of the Moon is Illuminated
Today
First Quarter
Sep 8
Full
Sep 15
Last Quarter
Sep 24
New
Oct 1
First Quarter

Today's Extremes

State Highs State Lows

Community

WunderPhotos

Upload Photos

1,749,729 photos uploaded!

Nearby

Snow Depth

Station Depth Elevation
No new snow has been reported.

Earthquake Activity

City Distance Mag. Time & Date
No recent earthquake activity has been reported nearby.
Minimum magnitude displayed is 2.5.

Coastal Water Temperatures

Place Temperature
Menominee, MI 70.0 °F

Nearby Weather Stations